Jack Brusco — WDC3066 — position and weather

sailwx.info

Track history (hours):
 
Tides and Currents Weather Stations Pressure Air Temp Water Temp Dewpoint Dewpoint Depression Visibility Wind Speed Wind Dir Waves Ship Positions

Jack Brusco

Owner: Brusco Tug & Barge, Inc., Longview, WA. More information available from US FCC via Universal Licensing System and Coast Guard Vessel Documentation Center.

Last reported at 2014-Oct-28 19:08 UTC. Time now 2014-Oct-31 07:07 UTC.
Position N 46°12' W 123°23'.

Length 36 m; draft 5.2 m.

Type: Tug. MMSI: 3699086.

Date/timePositionNaut miles runAvg speedWind from/ knotsBaromVisibWave heightAir tempDewpointWater temp
2014-Oct-28 19:08N 46°12' W 123°23'0 0.5
2014-Oct-28 18:33N 46°12' W 123°24'5 5.2
2014-Oct-28 17:33N 46°09' W 123°18'1110.6
2014-Oct-28 16:33N 46°09' W 123°03'6 6.2
2014-Oct-28 15:33N 46°05' W 122°56'3 2.6
2014-Oct-28 14:33N 46°07' W 122°59'4 4.4
2014-Oct-28 13:33N 46°09' W 123°04'5 4.6
2014-Oct-28 12:33N 46°11' W 123°10'6 6.5
2014-Oct-28 11:34N 46°09' W 123°18'6 6.3
2014-Oct-28 10:33N 46°12' W 123°26'6 5.7
2014-Oct-28 09:33N 46°16' W 123°32'8 7.8
2014-Oct-28 08:33N 46°14' W 123°43'8 7.9
2014-Oct-28 07:34N 46°11' W 123°54'6 6.4
2014-Oct-28 06:34N 46°15' W 124°01'4 4.0
2014-Oct-28 05:34N 46°14' W 124°07'3 3.4
2014-Oct-28 04:33N 46°13' W 124°12'2 2.2
2014-Oct-28 03:32N 46°14' W 124°14'2 2.3
2014-Oct-28 02:33N 46°17' W 124°14'3 3.2
2014-Oct-28 01:33N 46°20' W 124°14'3 3.0
2014-Oct-28 00:33N 46°23' W 124°14'6 5.6
2014-Oct-27 23:33N 46°29' W 124°15'6 5.6
2014-Oct-27 22:33N 46°34' W 124°17'6 5.9
2014-Oct-27 21:33N 46°40' W 124°17'6 6.4
2014-Oct-27 20:33N 46°46' W 124°18'7 6.8
2014-Oct-27 19:33N 46°53' W 124°14'  
2014-Oct-24 23:19N 46°15' W 124°11'5 7.0
2014-Oct-24 22:33N 46°15' W 124°03'310.1
2014-Oct-24 22:16N 46°14' W 123°59'6 9.0
2014-Oct-24 21:33N 46°12' W 123°51'010.6
2014-Oct-24 21:31N 46°12' W 123°50'8 8.7
2014-Oct-24 20:33N 46°15' W 123°39'  
Track history (hours):
 
Tides and Currents Weather Stations Pressure Air Temp Water Temp Dewpoint Dewpoint Depression Visibility Wind Speed Wind Dir Waves Ship Positions

Jack Brusco

Owner: Brusco Tug & Barge, Inc., Longview, WA. More information available from US FCC via Universal Licensing System and Coast Guard Vessel Documentation Center.

Last reported at 2014-Oct-28 19:08 UTC. Time now 2014-Oct-31 07:07 UTC.
Position N 46°12' W 123°23'.

Length 36 m; draft 5.2 m.

Type: Tug. MMSI: 3699086.

Date/timePositionNaut miles runAvg speedWind from/ knotsBaromVisibWave heightAir tempDewpointWater temp
2014-Oct-28 19:08N 46°12' W 123°23'0 0.5
2014-Oct-28 18:33N 46°12' W 123°24'5 5.2
2014-Oct-28 17:33N 46°09' W 123°18'1110.6
2014-Oct-28 16:33N 46°09' W 123°03'6 6.2
2014-Oct-28 15:33N 46°05' W 122°56'3 2.6
2014-Oct-28 14:33N 46°07' W 122°59'4 4.4
2014-Oct-28 13:33N 46°09' W 123°04'5 4.6
2014-Oct-28 12:33N 46°11' W 123°10'6 6.5
2014-Oct-28 11:34N 46°09' W 123°18'6 6.3
2014-Oct-28 10:33N 46°12' W 123°26'6 5.7
2014-Oct-28 09:33N 46°16' W 123°32'8 7.8
2014-Oct-28 08:33N 46°14' W 123°43'8 7.9
2014-Oct-28 07:34N 46°11' W 123°54'6 6.4
2014-Oct-28 06:34N 46°15' W 124°01'4 4.0
2014-Oct-28 05:34N 46°14' W 124°07'3 3.4
2014-Oct-28 04:33N 46°13' W 124°12'2 2.2
2014-Oct-28 03:32N 46°14' W 124°14'2 2.3
2014-Oct-28 02:33N 46°17' W 124°14'3 3.2
2014-Oct-28 01:33N 46°20' W 124°14'3 3.0
2014-Oct-28 00:33N 46°23' W 124°14'6 5.6
2014-Oct-27 23:33N 46°29' W 124°15'6 5.6
2014-Oct-27 22:33N 46°34' W 124°17'6 5.9
2014-Oct-27 21:33N 46°40' W 124°17'6 6.4
2014-Oct-27 20:33N 46°46' W 124°18'7 6.8
2014-Oct-27 19:33N 46°53' W 124°14'  
2014-Oct-24 23:19N 46°15' W 124°11'5 7.0
2014-Oct-24 22:33N 46°15' W 124°03'310.1
2014-Oct-24 22:16N 46°14' W 123°59'6 9.0
2014-Oct-24 21:33N 46°12' W 123°51'010.6
2014-Oct-24 21:31N 46°12' W 123°50'8 8.7
2014-Oct-24 20:33N 46°15' W 123°39'  

Dump ship's entire track history